Loxahatchee, FL

7:23 PM EST on December 10, 2016 (GMT -0500)
Orange Blvd | | Change Station

Elev 59 ft 26.68 °N, 80.26 °W | Updated 16 seconds ago

Overcast
Overcast
68.0 °F
Feels Like 68.0 °F
N
4.0
Wind Variable Wind from NNE

Today
High -- | Low -- °F
--% Chance of Precip.
Yesterday
High -- | Low -- °F
Precip. -- in
Pressure 30.24 in
Visibility 10.0 miles
Clouds Mostly Cloudy 2200 ft
Mostly Cloudy 5000 ft
Overcast 7000 ft
Dew Point 66 °F
Humidity 95%
Rainfall 0.00 in
Snow Depth Not available.
6:59 AM 5:29 PM
Waxing Gibbous, 87% visible
METAR KPBI 102353Z 06014G20KT 10SM BKN022 BKN050 OVC070 22/17 A3024 RMK AO2 SLP240 60008 T02220172 10222 20206 53008
Pressure 30.24 in
Visibility 10.0 miles
Clouds Mostly Cloudy 2200 ft
Mostly Cloudy 5000 ft
Overcast 7000 ft
Dew Point 66 °F
Humidity 95%
Rainfall 0.00 in
Snow Depth Not available.
6:59 AM 5:29 PM
Waxing Gibbous, 87% visible
METAR KPBI 102353Z 06014G20KT 10SM BKN022 BKN050 OVC070 22/17 A3024 RMK AO2 SLP240 60008 T02220172 10222 20206 53008

10-Day Weather Forecast

Almanac

Astronomy

Dec. 10, 2016 Rise Set
Actual Time
Civil Twilight
Nautical Twilight
Astronomical Twilight
Moon
Length of Visible Light
Length of Day
Tomorrow will be .
, % of the Moon is Illuminated

Today's Extremes

State Highs State Lows

Community

WunderPhotos

Upload Photos

1,956,682 photos uploaded!

WunderBlog® & News

Nearby

Air Quality

  Air Quality AQ Index Pollutant
Not available.

Snow Depth

Station Depth Elevation

Earthquake Activity

City Distance Mag. Time & Date
Minimum magnitude displayed is 2.5.

Coastal Water Temperatures

Place Temperature

Stations

Nearby Weather Stations

Station Location Temp. Windchill Dew Point Humidity Wind Precip. Elev Updated Type
                   

Watches & Warnings

There are currently no watches in effect.